Terminal Aerodrome Forecast
Issued by NWS Green Bay, WI

Home | Current Version | Previous Version | Graphics & Text | Print | Product List | Glossary On
Versions: 1 2 3 4 5 6 7 8 9 10 11 12 13 14 15 16 17 18 19 20 21 22 23 24 25 26 27 28 29 30 31 32 33 34 35 36
000
FTUS43 KGRB 290500
TAFGRB
TAF
KGRB 290524Z 2906/3006 13006KT P6SM VCSH SCT035 OVC060
     FM290800 12004KT 5SM -SHRA BKN030 OVC040
     FM291200 17008KT 4SM -SHRA BR BKN025 OVC035
      TEMPO 2912/2916 3SM SHRA BR OVC020
     FM292100 17012KT 5SM -SHRA BR SCT020 OVC035
     FM300200 19010KT 3SM SHRA BR OVC015=

USA.gov is the U.S. government's official web portal to all federal, state and local government web resources and services.